Hingham, United Kingdom
Current Conditions -  °F | °C
As of 9:50 PM on Friday 24 Oct 2014 (Local Time) from EGSH Reporting Station
Broken Clouds Broken Clouds  
Wind Chill: 54°   Ceiling: 4600
Heat Index: 54°   Visibility: 6mi
Dew Point: 52°   Wind: 9mph
Humidity: 94%   Direction: 290°WNW
Pressure: 29.91"   Gusts: NA
Location:  52.58°N, 0.98°E
Report Text: EGSH 242050Z 29008KT 9999 FEW015 SCT036 BKN046 12/11 Q1013 NOSIG
Loading
Personal Weather Stations






























Interactive Weather Map
Tropical Storm Tracking
New forecast layout! Learn more

10-Day Weather Forecast

Advertisements
Track Severe Weather on mobile